createdAt,value
2022-12-23T00:03:04.703Z,99926.94
2022-12-23T00:07:16.334Z,99933.72
2022-12-23T00:11:28.760Z,99936.16
2022-12-23T00:15:40.326Z,99933.94
2022-12-23T00:19:51.830Z,99935.09
2022-12-23T00:24:03.523Z,99933.47
2022-12-23T00:28:17.457Z,99937.28
2022-12-23T00:32:29.031Z,99947.97
2022-12-23T00:36:40.871Z,99948.13
2022-12-23T00:41:27.796Z,99955.19
2022-12-23T00:45:39.375Z,99951.84
2022-12-23T00:49:50.954Z,99947.06
2022-12-23T00:54:03.176Z,99959.75
2022-12-23T00:58:17.152Z,99954.88
2022-12-23T01:02:47.440Z,99966.19
2022-12-23T01:06:59.144Z,99973.44
2022-12-23T01:11:12.008Z,99991.53
2022-12-23T01:15:24.001Z,99999.88
2022-12-23T01:19:35.679Z,99997.78
2022-12-23T01:23:47.404Z,99997.47
2022-12-23T01:27:59.062Z,99994.69
2022-12-23T01:32:10.927Z,99998.53
2022-12-23T01:36:23.404Z,100007.72
2022-12-23T01:40:37.111Z,100010.56
2022-12-23T01:45:00.655Z,100005.59
2022-12-23T01:49:12.314Z,100023.09
2022-12-23T01:53:38.835Z,100022.03
2022-12-23T01:57:52.807Z,100030.56
2022-12-23T02:02:23.140Z,100024.88
2022-12-23T02:06:56.391Z,100030.81
2022-12-23T02:11:55.499Z,100038.06
2022-12-23T02:16:17.135Z,100042.31
2022-12-23T02:20:49.802Z,100055.00
2022-12-23T02:25:13.319Z,100062.72
2022-12-23T02:29:43.713Z,100068.53
2022-12-23T02:34:07.783Z,100072.03
2022-12-23T02:38:31.554Z,100081.13
2022-12-23T02:43:00.261Z,100078.28
2022-12-23T02:47:21.296Z,100091.31
2022-12-23T02:51:37.986Z,100094.00
2022-12-23T02:55:52.621Z,100095.03
2022-12-23T03:00:06.516Z,100097.16
2022-12-23T03:04:18.216Z,100106.59
2022-12-23T03:08:34.803Z,100127.28
2022-12-23T03:13:04.052Z,100130.78
2022-12-23T03:17:33.204Z,100131.84
2022-12-23T03:22:10.641Z,100141.78
2022-12-23T03:26:40.510Z,100120.09
2022-12-23T03:30:57.452Z,100129.03
2022-12-23T03:35:11.155Z,100112.03
2022-12-23T03:39:28.816Z,100104.34
2022-12-23T03:43:50.361Z,100111.00
2022-12-23T03:48:10.067Z,100122.31
2022-12-23T03:52:30.742Z,100111.41
2022-12-23T03:56:48.000Z,100122.81
2022-12-23T04:01:11.404Z,100113.84
2022-12-23T04:05:34.907Z,100112.44
2022-12-23T04:09:48.155Z,100126.34
2022-12-23T04:13:59.781Z,100132.53
2022-12-23T04:18:17.514Z,100133.59
2022-12-23T04:22:29.128Z,100141.28
2022-12-23T04:26:40.682Z,100139.41
2022-12-23T04:30:52.299Z,100159.50
2022-12-23T04:35:04.644Z,100160.56
2022-12-23T04:39:16.250Z,100173.63
2022-12-23T04:43:27.921Z,100168.38
2022-12-23T04:47:40.671Z,100162.09
2022-12-23T04:51:52.676Z,100158.47
2022-12-23T04:56:04.571Z,100149.50
2022-12-23T05:00:16.577Z,100172.47
2022-12-23T05:04:28.265Z,100175.53
2022-12-23T05:08:40.042Z,100146.22
2022-12-23T05:12:51.644Z,100139.81
2022-12-23T05:17:07.451Z,100140.63
2022-12-23T05:21:19.636Z,100147.63
2022-12-23T05:25:33.840Z,100175.06
2022-12-23T05:29:45.497Z,100173.75
2022-12-23T05:34:02.330Z,100174.69
2022-12-23T05:38:18.133Z,100194.41
2022-12-23T05:42:29.755Z,100190.22
2022-12-23T05:46:41.425Z,100210.78
2022-12-23T05:50:53.603Z,100213.19
2022-12-23T05:55:05.870Z,100210.28
2022-12-23T05:59:17.476Z,100204.91
2022-12-23T06:03:29.466Z,100199.31
2022-12-23T06:07:42.020Z,100204.69
2022-12-23T06:11:53.591Z,100211.81
2022-12-23T06:16:05.724Z,100193.72
2022-12-23T06:20:20.734Z,100200.47
2022-12-23T06:24:32.783Z,100192.66
2022-12-23T06:28:44.347Z,100189.19
2022-12-23T06:32:55.933Z,100189.19
2022-12-23T06:37:07.670Z,100182.28
2022-12-23T06:41:19.188Z,100176.31
2022-12-23T06:45:30.806Z,100177.88
2022-12-23T06:49:42.539Z,100196.66
2022-12-23T06:53:54.285Z,100195.47
2022-12-23T06:58:06.094Z,100207.25
2022-12-23T07:02:17.771Z,100228.13
2022-12-23T07:06:29.585Z,100237.00
2022-12-23T07:10:41.418Z,100234.16
2022-12-23T07:14:52.974Z,100245.72
2022-12-23T07:19:04.791Z,100253.09
2022-12-23T07:23:16.822Z,100261.72
2022-12-23T07:27:28.366Z,100252.28
2022-12-23T07:31:41.313Z,100257.88
2022-12-23T07:35:58.682Z,100272.47
2022-12-23T07:40:10.994Z,100264.88
2022-12-23T07:44:22.593Z,100262.56
2022-12-23T07:48:34.128Z,100262.22
2022-12-23T07:52:45.943Z,100262.22
2022-12-23T07:56:58.135Z,100232.69
2022-12-23T08:01:09.831Z,100228.88
2022-12-23T08:05:21.866Z,100225.13
2022-12-23T08:09:33.563Z,100234.56
2022-12-23T08:13:46.102Z,100231.66
2022-12-23T08:17:57.706Z,100230.94
2022-12-23T08:22:09.241Z,100244.97
2022-12-23T08:26:23.503Z,100234.09
2022-12-23T08:30:35.219Z,100230.59
2022-12-23T08:34:46.884Z,100237.13
2022-12-23T08:39:01.215Z,100221.63
2022-12-23T08:43:12.860Z,100210.66
2022-12-23T08:47:24.552Z,100202.00
2022-12-23T08:51:37.914Z,100223.69
2022-12-23T08:55:49.619Z,100203.28
2022-12-23T09:00:01.245Z,100200.03
2022-12-23T09:04:14.159Z,100181.47
2022-12-23T09:08:25.939Z,100190.44
2022-12-23T09:12:37.608Z,100190.78
2022-12-23T09:16:52.607Z,100180.03
2022-12-23T09:21:07.079Z,100174.81
2022-12-23T09:25:18.716Z,100195.91
2022-12-23T09:29:30.317Z,100162.09
2022-12-23T09:33:42.355Z,100168.63
2022-12-23T09:37:53.889Z,100164.41
2022-12-23T09:42:25.310Z,100170.34
2022-12-23T09:46:45.206Z,100156.13
2022-12-23T09:50:57.104Z,100168.97
2022-12-23T09:55:12.103Z,100146.34
2022-12-23T10:00:02.100Z,100149.56
2022-12-23T10:04:22.913Z,100141.53
2022-12-23T10:08:39.556Z,100135.50
2022-12-23T10:12:53.729Z,100128.09
2022-12-23T10:17:14.611Z,100103.03
2022-12-23T10:21:47.268Z,100094.75
2022-12-23T10:26:03.669Z,100075.16
2022-12-23T10:35:06.863Z,100089.69
2022-12-23T10:39:51.309Z,100080.84
2022-12-23T10:44:23.138Z,100065.16
2022-12-23T10:48:46.862Z,100052.38
2022-12-23T10:53:03.119Z,100054.31
2022-12-23T10:57:17.342Z,100054.78
2022-12-23T11:01:31.258Z,100050.78
2022-12-23T11:05:44.490Z,100049.91
2022-12-23T11:10:04.057Z,100048.38
2022-12-23T11:14:36.833Z,100034.03
2022-12-23T11:18:58.584Z,100047.41
2022-12-23T11:23:31.210Z,100021.06
2022-12-23T11:27:44.797Z,100020.47
2022-12-23T11:31:56.619Z,100018.44
2022-12-23T11:36:17.574Z,100024.03
2022-12-23T11:40:36.019Z,100019.19
2022-12-23T11:44:51.639Z,100019.00
2022-12-23T11:49:33.679Z,100006.06
2022-12-23T11:53:45.256Z,99977.75
2022-12-23T11:57:57.112Z,99972.13
2022-12-23T12:02:44.471Z,99955.94
2022-12-23T12:06:57.240Z,99934.34
2022-12-23T12:11:16.588Z,99923.78
2022-12-23T12:15:34.165Z,99925.47
2022-12-23T12:19:45.823Z,99902.53
2022-12-23T12:24:20.048Z,99890.66
2022-12-23T12:28:40.065Z,99880.63
2022-12-23T12:32:59.387Z,99887.06
2022-12-23T12:37:36.837Z,99883.41
2022-12-23T12:41:58.497Z,99884.72
2022-12-23T12:46:31.311Z,99866.63
2022-12-23T12:50:56.804Z,99852.72
2022-12-23T12:55:40.199Z,99832.53
2022-12-23T13:00:01.621Z,99824.09
2022-12-23T13:04:48.488Z,99799.94
2022-12-23T13:09:19.342Z,99801.22
2022-12-23T13:13:43.261Z,99780.91
2022-12-23T13:18:04.067Z,99779.19
2022-12-23T13:22:24.662Z,99777.91
2022-12-23T13:26:39.668Z,99771.97
2022-12-23T13:31:03.030Z,99747.97
2022-12-23T13:35:18.807Z,99752.13
2022-12-23T13:40:00.889Z,99728.38
2022-12-23T13:44:15.041Z,99722.50
2022-12-23T13:49:06.158Z,99712.19
2022-12-23T13:53:37.669Z,99710.66
2022-12-23T13:58:11.584Z,99712.34
2022-12-23T14:02:35.411Z,99703.22
2022-12-23T14:06:48.367Z,99724.72
2022-12-23T14:11:19.884Z,99721.69
2022-12-23T14:15:31.454Z,99719.78
2022-12-23T14:19:49.134Z,99729.81
2022-12-23T14:24:22.547Z,99721.53
2022-12-23T14:28:48.602Z,99707.53
2022-12-23T14:33:04.080Z,99689.19
2022-12-23T14:37:24.567Z,99679.06
2022-12-23T14:41:39.478Z,99665.91
2022-12-23T14:45:56.604Z,99644.38
2022-12-23T14:50:33.810Z,99647.06
2022-12-23T14:55:06.078Z,99629.72
2022-12-23T14:59:42.768Z,99634.53
2022-12-23T15:04:01.629Z,99640.13
2022-12-23T15:08:28.949Z,99643.94
2022-12-23T15:12:43.613Z,99645.00
2022-12-23T15:16:55.288Z,99672.41
2022-12-23T15:21:13.258Z,99647.38
2022-12-23T15:25:27.876Z,99678.25
2022-12-23T15:29:46.743Z,99656.22
2022-12-23T15:34:03.510Z,99649.19
2022-12-23T15:38:18.130Z,99652.84
2022-12-23T15:42:38.454Z,99670.66
2022-12-23T15:46:51.333Z,99630.56
2022-12-23T15:51:08.666Z,99650.00
2022-12-23T15:55:25.128Z,99660.47
2022-12-23T15:59:38.626Z,99654.31
2022-12-23T16:03:56.896Z,99636.31
2022-12-23T16:08:19.376Z,99642.00
2022-12-23T16:12:34.894Z,99616.66
2022-12-23T16:16:46.560Z,99630.56
2022-12-23T16:21:04.024Z,99621.63
2022-12-23T16:25:20.605Z,99641.53
2022-12-23T16:29:33.583Z,99650.50
2022-12-23T16:33:51.856Z,99652.84
2022-12-23T16:38:14.379Z,99649.84
2022-12-23T16:42:38.291Z,99665.78
2022-12-23T16:46:51.639Z,99668.22
2022-12-23T16:51:07.486Z,99666.97
2022-12-23T16:55:20.317Z,99672.56
2022-12-23T16:59:31.879Z,99668.25
2022-12-23T17:03:43.607Z,99681.44
2022-12-23T17:07:55.249Z,99681.38
2022-12-23T17:12:07.030Z,99674.88
2022-12-23T17:16:20.685Z,99688.84
2022-12-23T17:20:32.295Z,99685.59
2022-12-23T17:24:44.092Z,99688.09
2022-12-23T17:28:55.713Z,99704.03
2022-12-23T17:33:18.463Z,99693.78
2022-12-23T17:37:31.482Z,99706.00
2022-12-23T17:41:43.056Z,99709.34
2022-12-23T17:45:54.840Z,99694.00
2022-12-23T17:50:07.303Z,99693.16
2022-12-23T17:54:23.260Z,99694.69
2022-12-23T17:58:34.890Z,99713.06
2022-12-23T18:02:47.133Z,99719.72
2022-12-23T18:06:58.765Z,99722.34
2022-12-23T18:11:21.279Z,99717.03
2022-12-23T18:15:44.568Z,99719.16
2022-12-23T18:19:56.141Z,99726.47
2022-12-23T18:24:10.084Z,99726.94
2022-12-23T18:28:22.377Z,99730.72
2022-12-23T18:32:34.082Z,99711.59
2022-12-23T18:36:46.291Z,99735.56
2022-12-23T18:40:58.170Z,99748.09
2022-12-23T18:45:24.971Z,99766.91
2022-12-23T18:49:37.137Z,99746.16
2022-12-23T18:53:49.078Z,99777.16
2022-12-23T18:58:01.141Z,99770.56
2022-12-23T19:02:15.229Z,99770.06
2022-12-23T19:06:26.934Z,99763.31
2022-12-23T19:10:38.591Z,99791.38
2022-12-23T19:14:50.257Z,99789.25
2022-12-23T19:19:01.858Z,99776.25
2022-12-23T19:23:14.378Z,99773.34
2022-12-23T19:27:26.039Z,99779.75
2022-12-23T19:31:41.024Z,99799.50
2022-12-23T19:35:52.541Z,99804.81
2022-12-23T19:40:05.377Z,99811.06
2022-12-23T19:44:17.039Z,99809.41
2022-12-23T19:48:29.430Z,99812.94
2022-12-23T19:52:41.086Z,99824.00
2022-12-23T19:56:52.927Z,99802.94
2022-12-23T20:01:12.812Z,99835.97
2022-12-23T20:05:24.459Z,99825.75
2022-12-23T20:09:36.507Z,99834.88
2022-12-23T20:13:55.350Z,99855.69
2022-12-23T20:18:06.970Z,99868.06
2022-12-23T20:22:18.592Z,99859.34
2022-12-23T20:26:30.153Z,99866.88
2022-12-23T20:30:42.440Z,99879.94
2022-12-23T20:34:53.999Z,99874.75
2022-12-23T20:39:06.125Z,99885.72
2022-12-23T20:43:17.677Z,99892.75
2022-12-23T20:47:29.251Z,99895.84
2022-12-23T20:51:40.882Z,99915.84
2022-12-23T20:55:52.472Z,99916.06
2022-12-23T21:00:05.500Z,99924.16
2022-12-23T21:04:17.861Z,99933.84
2022-12-23T21:08:29.488Z,99939.41
2022-12-23T21:12:43.120Z,99943.63
2022-12-23T21:16:55.524Z,99949.25
2022-12-23T21:21:07.252Z,99942.41
2022-12-23T21:25:18.848Z,99956.25
2022-12-23T21:29:30.484Z,99975.88
2022-12-23T21:33:44.700Z,99977.91
2022-12-23T21:37:56.279Z,99990.19
2022-12-23T21:42:07.908Z,99995.31
2022-12-23T21:46:21.654Z,99993.38
2022-12-23T21:50:33.272Z,100004.13
2022-12-23T21:54:44.795Z,100022.94
2022-12-23T21:58:57.893Z,100021.66
2022-12-23T22:03:09.474Z,100024.00
2022-12-23T22:07:21.051Z,100017.53
2022-12-23T22:11:35.283Z,100043.31
2022-12-23T22:15:46.794Z,100032.47
2022-12-23T22:19:58.363Z,100030.97
2022-12-23T22:24:10.488Z,100043.34
2022-12-23T22:28:22.423Z,100048.94
2022-12-23T22:32:36.613Z,100056.28
2022-12-23T22:36:52.421Z,100058.16
2022-12-23T22:41:04.172Z,100071.59
2022-12-23T22:45:15.891Z,100079.66
2022-12-23T22:49:27.765Z,100088.53
2022-12-23T22:53:39.351Z,100084.31
2022-12-23T22:57:50.909Z,100107.41
2022-12-23T23:02:02.690Z,100096.81
2022-12-23T23:06:14.444Z,100113.97
2022-12-23T23:10:26.089Z,100121.91
2022-12-23T23:14:52.802Z,100124.13
2022-12-23T23:19:05.129Z,100127.53
2022-12-23T23:23:16.977Z,100149.94
2022-12-23T23:27:28.593Z,100144.22
2022-12-23T23:31:42.488Z,100149.56
2022-12-23T23:35:56.491Z,100161.88
2022-12-23T23:40:08.727Z,100162.44
2022-12-23T23:44:20.607Z,100150.19
2022-12-23T23:48:32.120Z,100182.06
2022-12-23T23:52:43.630Z,100183.34
2022-12-23T23:56:55.114Z,100179.13
